Time;durP1;ratioP1;P1;durP2;ratioP2;P2;SDS_P1;SDS_P2;PMS_P1;PMS_P2;Temp;Humidity;BMP_temperature;BMP_pressure;BME280_temperature;BME280_humidity;BME280_pressure;Samples;Min_cycle;Max_cycle;Signal;HPM_P1;HPM_P2
2024/01/30 00:02:17;;;;;;;12.80;6.47;;;2.70;99.90;;;;;;5009880;28;20034;-77
2024/01/30 00:04:42;;;;;;;13.80;6.93;;;2.80;99.90;;;;;;4958566;28;1068250;-77
2024/01/30 00:07:08;;;;;;;10.87;5.93;;;2.70;99.90;;;;;;5010801;28;20038;-77
2024/01/30 00:09:34;;;;;;;11.63;6.00;;;2.70;99.90;;;;;;4979171;28;20386;-77
2024/01/30 00:12:00;;;;;;;12.43;5.97;;;2.70;99.90;;;;;;5010920;28;20034;-78
2024/01/30 00:14:25;;;;;;;13.80;6.20;;;2.70;99.90;;;;;;5011345;28;20030;-78
2024/01/30 00:16:51;;;;;;;12.10;6.27;;;2.70;99.90;;;;;;4978870;28;20047;-78
2024/01/30 00:19:17;;;;;;;12.57;5.57;;;2.70;99.90;;;;;;5010946;28;20096;-78
2024/01/30 00:21:43;;;;;;;11.90;6.00;;;2.70;99.90;;;;;;5011158;28;20053;-79
2024/01/30 00:24:08;;;;;;;9.93;5.90;;;2.70;99.90;;;;;;4995726;28;20102;-78
2024/01/30 00:26:34;;;;;;;16.07;6.70;;;2.70;99.90;;;;;;5011266;28;20026;-78
2024/01/30 00:29:00;;;;;;;11.17;6.13;;;2.60;99.90;;;;;;4995551;28;20081;-78
2024/01/30 00:31:25;;;;;;;14.33;6.33;;;2.60;99.90;;;;;;4978402;28;20027;-77
2024/01/30 00:33:51;;;;;;;10.47;5.80;;;2.60;99.90;;;;;;5011184;28;20034;-78
2024/01/30 00:36:16;;;;;;;13.17;6.70;;;2.60;99.90;;;;;;5010830;28;20395;-77
2024/01/30 00:38:42;;;;;;;15.83;6.23;;;2.60;99.90;;;;;;5011473;28;20029;-77
2024/01/30 00:41:09;;;;;;;13.37;6.13;;;2.60;99.90;;;;;;5010567;28;20470;-77
2024/01/30 00:43:34;;;;;;;12.20;6.23;;;2.70;99.90;;;;;;5011177;28;20121;-77
2024/01/30 00:46:00;;;;;;;10.17;6.03;;;2.80;99.90;;;;;;4978034;28;20057;-78
2024/01/30 00:48:26;;;;;;;11.17;5.47;;;2.70;99.90;;;;;;5010955;28;20026;-78
2024/01/30 00:50:51;;;;;;;11.67;5.60;;;2.70;99.90;;;;;;4978495;28;20031;-77
2024/01/30 00:53:17;;;;;;;10.73;5.60;;;2.60;99.90;;;;;;5010126;28;20027;-77
2024/01/30 00:55:43;;;;;;;11.03;6.33;;;2.60;99.90;;;;;;4995641;28;20034;-77
2024/01/30 00:58:09;;;;;;;13.47;6.17;;;2.60;99.90;;;;;;4994902;28;20481;-77
2024/01/30 01:00:34;;;;;;;11.77;6.23;;;2.60;99.90;;;;;;5010766;28;20030;-77
2024/01/30 01:03:00;;;;;;;13.23;5.70;;;2.60;99.90;;;;;;4977464;28;20027;-77
2024/01/30 01:05:26;;;;;;;10.17;5.60;;;2.60;99.90;;;;;;5009843;28;20046;-78
2024/01/30 01:07:51;;;;;;;11.67;5.87;;;2.60;99.90;;;;;;4995299;28;20395;-78
2024/01/30 01:10:18;;;;;;;13.13;5.80;;;2.60;99.90;;;;;;4994980;28;20034;-78
2024/01/30 01:12:44;;;;;;;10.93;5.50;;;2.60;99.90;;;;;;4995334;28;20115;-78
2024/01/30 01:15:10;;;;;;;9.97;5.50;;;2.60;99.90;;;;;;4994820;28;20023;-78
2024/01/30 01:17:40;;;;;;;9.57;5.03;;;2.50;99.90;;;;;;4977913;28;20471;-78
2024/01/30 01:20:06;;;;;;;8.73;5.90;;;2.50;99.90;;;;;;4977212;28;20069;-79
2024/01/30 01:22:32;;;;;;;10.27;5.53;;;2.40;99.90;;;;;;4977849;28;20030;-78
2024/01/30 01:24:58;;;;;;;9.03;5.17;;;2.30;99.90;;;;;;5009824;28;20077;-81
2024/01/30 01:27:24;;;;;;;10.60;5.63;;;2.30;99.90;;;;;;4977531;28;20050;-78
2024/01/30 01:29:50;;;;;;;10.73;5.33;;;2.30;99.90;;;;;;5009914;28;20022;-78
2024/01/30 01:32:16;;;;;;;12.27;5.40;;;2.30;99.90;;;;;;4994584;28;20037;-78
2024/01/30 01:34:41;;;;;;;12.00;5.60;;;2.30;99.90;;;;;;4994830;28;20033;-78
2024/01/30 01:37:07;;;;;;;8.87;5.17;;;2.30;99.90;;;;;;4994584;28;20089;-78
2024/01/30 01:39:33;;;;;;;9.97;5.70;;;2.20;99.90;;;;;;4994841;28;20029;-77
2024/01/30 01:41:58;;;;;;;11.83;5.83;;;2.20;99.90;;;;;;4976756;28;20427;-83
2024/01/30 01:44:24;;;;;;;10.70;5.03;;;2.20;99.90;;;;;;4977662;28;20073;-79
2024/01/30 01:46:51;;;;;;;11.67;5.47;;;2.30;99.90;;;;;;4977508;28;20034;-78
2024/01/30 01:49:19;;;;;;;12.27;5.43;;;2.30;99.90;;;;;;4977212;28;20026;-78
2024/01/30 01:51:47;;;;;;;10.93;5.47;;;2.10;99.90;;;;;;4977356;28;20041;-77
2024/01/30 01:54:14;;;;;;;10.50;5.70;;;2.20;99.90;;;;;;4976770;28;20030;-78
2024/01/30 01:56:40;;;;;;;11.57;5.70;;;2.10;99.90;;;;;;4977195;28;20026;-77
2024/01/30 01:59:08;;;;;;;9.77;5.33;;;2.10;99.90;;;;;;4976940;28;20033;-78
2024/01/30 02:01:36;;;;;;;8.67;5.37;;;2.10;99.90;;;;;;4976680;28;20030;-78
2024/01/30 02:04:01;;;;;;;10.97;5.80;;;2.10;99.90;;;;;;4976504;28;20443;-79
2024/01/30 02:06:27;;;;;;;11.57;6.00;;;2.10;99.90;;;;;;4977448;28;20039;-78
2024/01/30 02:08:54;;;;;;;11.33;5.83;;;2.10;99.90;;;;;;5008820;28;20030;-78
2024/01/30 02:11:20;;;;;;;10.27;5.93;;;2.00;99.90;;;;;;4996247;28;20230;-78
2024/01/30 02:13:46;;;;;;;13.00;5.50;;;2.00;99.90;;;;;;4996787;28;20022;-79
2024/01/30 02:16:12;;;;;;;10.13;5.57;;;2.00;99.90;;;;;;4996100;28;20141;-77
2024/01/30 02:18:41;;;;;;;12.17;5.77;;;2.00;99.90;;;;;;4996471;28;20037;-78
2024/01/30 02:21:08;;;;;;;11.70;5.23;;;2.00;99.90;;;;;;4995907;28;20034;-79
2024/01/30 02:23:34;;;;;;;14.03;5.63;;;2.00;99.90;;;;;;4996302;28;20423;-78
2024/01/30 02:26:00;;;;;;;8.73;5.70;;;2.00;99.90;;;;;;4996358;28;20029;-78
2024/01/30 02:28:27;;;;;;;9.17;5.00;;;2.00;99.90;;;;;;4995507;28;20030;-78
2024/01/30 02:30:53;;;;;;;10.03;5.33;;;2.00;99.90;;;;;;4995366;28;20088;-78
2024/01/30 02:33:18;;;;;;;11.10;5.90;;;2.00;99.90;;;;;;4995655;28;20444;-78
2024/01/30 02:35:44;;;;;;;11.57;6.33;;;2.00;99.90;;;;;;5013736;28;20030;-78
2024/01/30 02:38:10;;;;;;;11.77;5.83;;;2.00;99.90;;;;;;5013056;28;20485;-78
2024/01/30 02:40:35;;;;;;;10.47;5.77;;;2.00;99.90;;;;;;5013405;28;20066;-78
2024/01/30 02:43:02;;;;;;;12.00;6.10;;;1.90;99.90;;;;;;5013681;28;20120;-78
2024/01/30 02:45:28;;;;;;;9.80;5.97;;;1.90;99.90;;;;;;5013436;28;20026;-77
2024/01/30 02:47:53;;;;;;;13.07;6.33;;;1.90;99.90;;;;;;4995840;28;20360;-78
2024/01/30 02:50:19;;;;;;;12.53;6.83;;;1.80;99.90;;;;;;5012883;28;20176;-78
2024/01/30 02:52:44;;;;;;;12.43;6.73;;;1.80;99.90;;;;;;4995991;28;20459;-78
2024/01/30 02:55:11;;;;;;;14.70;6.50;;;1.80;99.90;;;;;;4995396;28;20390;-77
2024/01/30 02:57:36;;;;;;;12.03;5.87;;;1.80;99.90;;;;;;4996177;28;20145;-77
2024/01/30 03:00:05;;;;;;;9.83;5.73;;;1.80;99.90;;;;;;5013185;28;20057;-77
2024/01/30 03:02:30;;;;;;;10.77;5.70;;;1.80;99.90;;;;;;4995424;28;20049;-77
2024/01/30 03:04:56;;;;;;;9.93;5.50;;;1.80;99.90;;;;;;4995325;28;20074;-77
2024/01/30 03:07:21;;;;;;;12.40;6.37;;;1.70;99.90;;;;;;4995147;28;20030;-77
2024/01/30 03:09:48;;;;;;;11.47;5.97;;;1.70;99.90;;;;;;4995654;28;20030;-77
2024/01/30 03:12:13;;;;;;;11.80;5.57;;;1.70;99.90;;;;;;5012506;28;20029;-78
2024/01/30 03:14:39;;;;;;;10.67;5.40;;;1.70;99.90;;;;;;4995731;28;20547;-77
2024/01/30 03:17:05;;;;;;;8.40;5.33;;;1.70;99.90;;;;;;4995304;28;20121;-78
2024/01/30 03:19:30;;;;;;;10.30;5.63;;;1.70;99.90;;;;;;4995778;28;20360;-77
2024/01/30 03:21:56;;;;;;;11.23;5.80;;;1.70;99.90;;;;;;4995664;28;20129;-77
2024/01/30 03:24:21;;;;;;;10.70;5.23;;;1.70;99.90;;;;;;4995144;28;20033;-77
2024/01/30 03:26:47;;;;;;;12.63;6.20;;;1.70;99.90;;;;;;5013084;28;20033;-77
2024/01/30 03:29:13;;;;;;;11.20;5.83;;;1.70;99.90;;;;;;5012319;28;20037;-78
2024/01/30 03:31:39;;;;;;;10.50;6.00;;;1.70;99.90;;;;;;4995678;28;20041;-77
2024/01/30 03:34:05;;;;;;;15.30;6.00;;;1.70;99.90;;;;;;4995442;28;20030;-86
2024/01/30 03:36:32;;;;;;;9.97;5.80;;;1.60;99.90;;;;;;5013049;28;20494;-77
2024/01/30 03:38:58;;;;;;;9.90;5.67;;;1.60;99.90;;;;;;4995530;28;20033;-78
2024/01/30 03:41:24;;;;;;;10.83;5.80;;;1.60;99.90;;;;;;5012893;28;20030;-77
2024/01/30 03:43:50;;;;;;;11.30;5.43;;;1.70;99.90;;;;;;4998681;28;20414;-78
2024/01/30 03:46:16;;;;;;;9.50;4.97;;;1.70;99.90;;;;;;4998408;28;20531;-77
2024/01/30 03:48:42;;;;;;;11.60;5.60;;;1.60;99.90;;;;;;4999407;28;20065;-77
2024/01/30 03:51:08;;;;;;;10.17;5.40;;;1.70;99.90;;;;;;4998321;28;20080;-78
2024/01/30 03:53:33;;;;;;;10.50;5.40;;;1.60;99.90;;;;;;5016159;28;20105;-78
2024/01/30 03:55:59;;;;;;;10.00;5.10;;;1.60;99.90;;;;;;4998737;28;20440;-77
2024/01/30 03:58:24;;;;;;;13.07;5.70;;;1.60;99.90;;;;;;4998076;28;20497;-77
2024/01/30 04:00:50;;;;;;;12.07;5.77;;;1.60;99.90;;;;;;4998485;28;20152;-77
2024/01/30 04:03:15;;;;;;;8.53;5.30;;;1.60;99.90;;;;;;4997901;28;20073;-77
2024/01/30 04:05:41;;;;;;;10.33;5.30;;;1.60;99.90;;;;;;4998629;28;20085;-77
2024/01/30 04:08:07;;;;;;;8.93;5.07;;;1.60;99.90;;;;;;4998022;28;20053;-89
2024/01/30 04:10:33;;;;;;;11.30;5.50;;;1.60;99.90;;;;;;4998473;28;20033;-77
2024/01/30 04:12:59;;;;;;;9.43;5.10;;;1.70;99.90;;;;;;5015674;28;20108;-77
2024/01/30 04:15:25;;;;;;;8.57;4.97;;;1.60;99.90;;;;;;5015380;28;20022;-77
2024/01/30 04:17:51;;;;;;;12.23;5.27;;;1.60;99.90;;;;;;5015712;28;20469;-77
2024/01/30 04:20:17;;;;;;;10.70;5.23;;;1.50;99.90;;;;;;4997852;28;20030;-77
2024/01/30 04:22:46;;;;;;;7.50;4.73;;;1.50;99.90;;;;;;5015631;28;20084;-77
2024/01/30 04:25:13;;;;;;;11.37;5.23;;;1.50;99.90;;;;;;5014792;28;20022;-77
2024/01/30 04:27:39;;;;;;;11.67;5.10;;;1.50;99.90;;;;;;5015614;28;20034;-77
2024/01/30 04:30:05;;;;;;;11.30;4.97;;;1.60;99.90;;;;;;5015341;28;20029;-77
2024/01/30 04:32:31;;;;;;;9.07;4.63;;;1.50;99.90;;;;;;4997284;28;20032;-77
2024/01/30 04:34:57;;;;;;;7.53;4.67;;;1.50;99.90;;;;;;4997710;28;20026;-77
2024/01/30 04:37:22;;;;;;;8.87;4.50;;;1.50;99.90;;;;;;5014793;28;20045;-77
2024/01/30 04:39:48;;;;;;;8.80;4.77;;;1.50;99.90;;;;;;4998172;28;20036;-77
2024/01/30 04:42:13;;;;;;;10.17;4.50;;;1.50;99.90;;;;;;4997516;28;20034;-78
2024/01/30 04:44:39;;;;;;;9.17;4.70;;;1.50;99.90;;;;;;4997881;28;20021;-78
2024/01/30 04:47:06;;;;;;;10.47;5.17;;;1.60;99.90;;;;;;4997862;28;20030;-78
2024/01/30 04:49:31;;;;;;;9.90;5.20;;;1.50;99.90;;;;;;5014661;28;20086;-77
2024/01/30 04:51:57;;;;;;;10.03;5.57;;;1.50;99.90;;;;;;4997691;28;20168;-77
2024/01/30 04:54:23;;;;;;;10.83;5.13;;;1.50;99.90;;;;;;5013441;28;20030;-77
2024/01/30 04:56:49;;;;;;;8.77;5.00;;;1.40;99.90;;;;;;4997169;28;20029;-77
2024/01/30 04:59:14;;;;;;;10.47;4.83;;;1.40;99.90;;;;;;4996721;28;20026;-78
2024/01/30 05:01:40;;;;;;;9.27;5.33;;;1.40;99.90;;;;;;5014962;28;20038;-77
2024/01/30 05:04:08;;;;;;;8.00;4.80;;;1.40;99.90;;;;;;4997111;28;20053;-77
2024/01/30 05:06:33;;;;;;;12.17;5.23;;;1.40;99.90;;;;;;5014500;28;20080;-79
2024/01/30 05:08:59;;;;;;;8.63;4.87;;;1.40;99.90;;;;;;4994791;28;20022;-77
2024/01/30 05:11:24;;;;;;;8.97;4.90;;;1.40;99.90;;;;;;4994403;28;20471;-78
2024/01/30 05:13:50;;;;;;;9.57;5.63;;;1.40;99.90;;;;;;5009880;28;20093;-77
2024/01/30 05:16:15;;;;;;;9.70;4.80;;;1.30;99.90;;;;;;4977421;28;20026;-78
2024/01/30 05:18:41;;;;;;;8.10;4.60;;;1.30;99.90;;;;;;4977883;28;20039;-77
2024/01/30 05:21:06;;;;;;;7.33;4.87;;;1.30;99.90;;;;;;5010137;28;20034;-78
2024/01/30 05:23:32;;;;;;;8.90;4.40;;;1.40;99.90;;;;;;5009440;28;20034;-77
2024/01/30 05:26:00;;;;;;;9.03;4.80;;;1.40;99.90;;;;;;4977296;28;20332;-77
2024/01/30 05:28:26;;;;;;;9.13;5.07;;;1.50;99.90;;;;;;4977323;28;20030;-77
2024/01/30 05:30:51;;;;;;;10.17;4.77;;;1.50;99.90;;;;;;4977880;28;20112;-78
2024/01/30 05:33:17;;;;;;;11.83;4.67;;;1.50;99.90;;;;;;4994635;28;20027;-78
2024/01/30 05:35:43;;;;;;;9.43;5.00;;;1.40;99.90;;;;;;5010409;28;20387;-78
2024/01/30 05:38:08;;;;;;;8.23;4.60;;;1.40;99.90;;;;;;5009984;28;20030;-78
2024/01/30 05:40:34;;;;;;;10.13;5.27;;;1.30;99.90;;;;;;4994366;28;20031;-78
2024/01/30 05:43:01;;;;;;;9.23;4.70;;;1.20;99.90;;;;;;4994659;28;20026;-78
2024/01/30 05:45:26;;;;;;;7.47;4.43;;;1.30;99.90;;;;;;5009520;28;20066;-77
2024/01/30 05:47:52;;;;;;;11.73;5.10;;;1.10;99.90;;;;;;4977403;28;20051;-77
2024/01/30 05:50:19;;;;;;;8.57;4.73;;;1.10;99.90;;;;;;4994420;28;20030;-80
2024/01/30 05:52:44;;;;;;;8.17;4.67;;;1.20;99.90;;;;;;4977138;28;20026;-78
2024/01/30 05:55:11;;;;;;;8.93;4.33;;;1.20;99.90;;;;;;5009843;28;20037;-77
2024/01/30 05:57:37;;;;;;;7.00;4.77;;;1.20;99.90;;;;;;4976592;28;20065;-77
2024/01/30 06:00:07;;;;;;;9.20;4.40;;;1.20;99.90;;;;;;5009634;28;20054;-77
2024/01/30 06:02:33;;;;;;;8.27;4.20;;;1.20;99.90;;;;;;5009304;28;20034;-78
2024/01/30 06:04:58;;;;;;;10.97;5.10;;;1.20;99.90;;;;;;4983190;28;20540;-77
2024/01/30 06:07:24;;;;;;;9.87;4.63;;;1.30;99.90;;;;;;4993955;28;20030;-77
2024/01/30 06:09:50;;;;;;;8.87;4.63;;;1.30;99.90;;;;;;4987555;28;20030;-77
2024/01/30 06:12:15;;;;;;;11.00;4.90;;;1.30;99.90;;;;;;4993887;28;20383;-79
2024/01/30 06:14:42;;;;;;;8.87;4.60;;;1.20;99.90;;;;;;5009530;28;20120;-77
2024/01/30 06:17:08;;;;;;;7.10;4.63;;;1.20;99.90;;;;;;4993428;28;20027;-77
2024/01/30 06:19:34;;;;;;;7.27;4.73;;;1.10;99.90;;;;;;4992674;28;20026;-78
2024/01/30 06:22:00;;;;;;;8.40;5.47;;;1.20;99.90;;;;;;5009374;28;20502;-77
2024/01/30 06:24:25;;;;;;;15.23;7.57;;;1.20;99.90;;;;;;4992998;28;20077;-78
2024/01/30 06:26:51;;;;;;;17.93;8.17;;;1.20;99.90;;;;;;5009479;28;20045;-77
2024/01/30 06:29:17;;;;;;;17.20;9.00;;;1.20;99.90;;;;;;5008970;28;20058;-78
2024/01/30 06:31:42;;;;;;;17.00;9.60;;;1.20;99.90;;;;;;5008986;28;20034;-77
2024/01/30 06:34:09;;;;;;;20.03;10.90;;;1.20;99.90;;;;;;4992845;28;20486;-78
2024/01/30 06:36:35;;;;;;;19.30;10.23;;;1.20;99.90;;;;;;4992001;28;20084;-77
2024/01/30 06:39:02;;;;;;;17.33;9.70;;;1.20;99.90;;;;;;4993040;28;20027;-77
2024/01/30 06:41:28;;;;;;;15.23;8.77;;;1.30;99.90;;;;;;4992563;28;20042;-78
2024/01/30 06:43:53;;;;;;;16.03;9.00;;;1.20;99.90;;;;;;4992584;28;20422;-78
2024/01/30 06:46:19;;;;;;;13.77;8.63;;;1.20;99.90;;;;;;5008880;28;20030;-78
2024/01/30 06:48:44;;;;;;;16.37;9.23;;;1.10;99.90;;;;;;4993961;28;20048;-77
2024/01/30 06:51:11;;;;;;;17.70;8.70;;;1.10;99.90;;;;;;4992845;28;20081;-77
2024/01/30 06:53:38;;;;;;;15.57;8.33;;;1.10;99.90;;;;;;4991972;28;20186;-78
2024/01/30 06:56:05;;;;;;;16.37;8.00;;;1.00;99.90;;;;;;4994005;28;20031;-77
2024/01/30 06:58:30;;;;;;;11.60;7.00;;;1.00;99.90;;;;;;4992095;28;20049;-77
2024/01/30 07:00:56;;;;;;;11.67;6.00;;;1.00;99.90;;;;;;4987767;28;20463;-77
2024/01/30 07:03:22;;;;;;;10.53;6.33;;;1.10;99.90;;;;;;4993136;28;20022;-78
2024/01/30 07:05:48;;;;;;;8.87;5.30;;;1.20;99.90;;;;;;4992213;28;20065;-77
2024/01/30 07:08:17;;;;;;;9.73;5.07;;;1.20;99.90;;;;;;4993601;28;20022;-77
2024/01/30 07:10:43;;;;;;;9.17;5.57;;;1.20;99.90;;;;;;4993364;28;20031;-77
2024/01/30 07:13:09;;;;;;;13.67;6.30;;;1.20;99.90;;;;;;4992728;28;20034;-77
2024/01/30 07:15:36;;;;;;;10.53;6.33;;;1.20;99.90;;;;;;5008533;28;20459;-78
2024/01/30 07:18:02;;;;;;;10.97;6.93;;;1.20;99.90;;;;;;4996570;28;20029;-77
2024/01/30 07:20:30;;;;;;;13.03;7.10;;;1.20;99.90;;;;;;4995633;28;20121;-77
2024/01/30 07:22:55;;;;;;;14.10;7.73;;;1.20;99.90;;;;;;4996496;28;20035;-77
2024/01/30 07:25:21;;;;;;;14.60;7.83;;;1.30;99.90;;;;;;5012456;28;20026;-78
2024/01/30 07:27:47;;;;;;;13.50;7.90;;;1.30;99.90;;;;;;4997077;28;20464;-77
2024/01/30 07:30:12;;;;;;;12.53;7.63;;;1.30;99.90;;;;;;4997485;28;20027;-77
2024/01/30 07:32:38;;;;;;;13.53;7.50;;;1.30;99.90;;;;;;4996716;28;20384;-77
2024/01/30 07:35:04;;;;;;;15.57;8.80;;;1.40;99.90;;;;;;4996924;28;20542;-77
2024/01/30 07:37:30;;;;;;;15.87;8.07;;;1.40;99.90;;;;;;4995243;28;20049;-77
2024/01/30 07:39:55;;;;;;;14.80;8.03;;;1.40;99.90;;;;;;4995814;28;20022;-77
2024/01/30 07:42:21;;;;;;;13.43;7.37;;;1.40;99.90;;;;;;5011324;28;20073;-78
2024/01/30 07:44:46;;;;;;;12.30;6.77;;;1.50;99.90;;;;;;4996764;28;20023;-77
2024/01/30 07:47:12;;;;;;;12.60;6.53;;;1.60;99.90;;;;;;5011936;28;20027;-77
2024/01/30 07:49:37;;;;;;;12.60;6.23;;;1.60;99.90;;;;;;5011224;28;20027;-77
2024/01/30 07:52:03;;;;;;;11.10;5.30;;;1.60;99.90;;;;;;5012017;28;20418;-77
2024/01/30 07:54:33;;;;;;;9.87;5.10;;;1.60;99.90;;;;;;4995372;28;20061;-77
2024/01/30 07:56:59;;;;;;;9.83;5.23;;;1.60;99.90;;;;;;4996840;28;20026;-77
2024/01/30 07:59:25;;;;;;;8.77;4.87;;;1.70;99.90;;;;;;4995002;28;20113;-78
2024/01/30 08:01:50;;;;;;;10.57;4.80;;;1.80;99.90;;;;;;4996605;28;20625;-78
2024/01/30 08:04:17;;;;;;;7.47;4.60;;;1.80;99.90;;;;;;5011320;28;20052;-78
2024/01/30 08:06:43;;;;;;;9.00;4.70;;;1.90;99.90;;;;;;4995113;28;20030;-78
2024/01/30 08:09:08;;;;;;;8.30;4.13;;;2.00;99.90;;;;;;5011854;28;20462;-77
2024/01/30 08:11:34;;;;;;;8.57;4.90;;;2.10;99.90;;;;;;5011303;28;20030;-77
2024/01/30 08:13:59;;;;;;;9.70;4.90;;;2.30;99.90;;;;;;5011773;28;20426;-77
2024/01/30 08:16:25;;;;;;;10.23;4.90;;;2.40;99.90;;;;;;5011107;28;20500;-78
2024/01/30 08:18:51;;;;;;;8.27;4.70;;;2.50;99.90;;;;;;5011822;28;20034;-77
2024/01/30 08:21:16;;;;;;;10.00;4.90;;;2.50;99.90;;;;;;5011404;28;20485;-77
2024/01/30 08:23:42;;;;;;;8.97;5.20;;;2.60;99.90;;;;;;5010826;28;20034;-77
2024/01/30 08:26:08;;;;;;;10.90;5.70;;;2.80;99.90;;;;;;5011165;28;20027;-77
2024/01/30 08:28:33;;;;;;;13.40;5.27;;;2.90;99.90;;;;;;4995398;28;20482;-76
2024/01/30 08:30:59;;;;;;;9.57;5.40;;;2.90;99.90;;;;;;5010892;28;20045;-76
2024/01/30 08:33:25;;;;;;;14.83;6.17;;;3.00;99.90;;;;;;5010423;28;20026;-78
2024/01/30 08:35:50;;;;;;;11.73;6.13;;;3.00;99.90;;;;;;5010483;28;20053;-77
2024/01/30 08:38:16;;;;;;;10.20;6.17;;;3.00;99.90;;;;;;5010870;28;20027;-77
2024/01/30 08:40:41;;;;;;;10.93;6.27;;;3.00;99.90;;;;;;4995216;28;20478;-77
2024/01/30 08:43:09;;;;;;;13.47;5.97;;;3.10;99.90;;;;;;4995594;28;20031;-77
2024/01/30 08:45:34;;;;;;;12.00;6.47;;;3.10;99.90;;;;;;4995147;28;20026;-76
2024/01/30 08:48:00;;;;;;;13.27;6.27;;;3.20;99.90;;;;;;5010651;28;20379;-77
2024/01/30 08:50:26;;;;;;;14.47;7.43;;;3.30;99.90;;;;;;5010237;28;20049;-79
2024/01/30 08:52:51;;;;;;;15.40;7.47;;;3.50;99.90;;;;;;5010798;28;20066;-78
2024/01/30 08:55:17;;;;;;;16.20;7.97;;;3.60;99.90;;;;;;5010978;28;20026;-78
2024/01/30 08:57:42;;;;;;;15.47;7.67;;;3.70;99.90;;;;;;5010383;28;20423;-77
2024/01/30 09:00:09;;;;;;;12.17;7.00;;;3.80;99.90;;;;;;5010352;28;20030;-76
2024/01/30 09:02:35;;;;;;;13.90;7.40;;;3.90;99.90;;;;;;4993578;28;20037;-77
2024/01/30 09:05:01;;;;;;;12.17;6.50;;;4.00;99.90;;;;;;4994807;28;20054;-76
2024/01/30 09:07:26;;;;;;;13.30;7.27;;;4.10;99.90;;;;;;5009608;28;20026;-77
2024/01/30 09:09:52;;;;;;;16.33;7.73;;;4.10;99.90;;;;;;4993879;28;20119;-77
2024/01/30 09:12:17;;;;;;;15.37;7.30;;;4.20;99.90;;;;;;4995394;28;20066;-77
2024/01/30 09:14:43;;;;;;;13.80;7.07;;;4.30;99.90;;;;;;4994867;28;20026;-77
2024/01/30 09:17:09;;;;;;;18.83;8.23;;;4.30;99.90;;;;;;4995206;28;20455;-77
2024/01/30 09:19:34;;;;;;;17.40;7.83;;;4.30;99.90;;;;;;5009812;28;20475;-78
2024/01/30 09:22:00;;;;;;;15.07;7.83;;;4.30;99.90;;;;;;4994922;28;20364;-77
2024/01/30 09:24:27;;;;;;;13.73;8.13;;;4.50;99.90;;;;;;5009900;28;20030;-87
2024/01/30 09:26:52;;;;;;;13.13;7.73;;;4.50;99.90;;;;;;4994819;28;20111;-78
2024/01/30 09:29:18;;;;;;;15.87;7.47;;;4.50;99.90;;;;;;4993601;28;20509;-77
2024/01/30 09:31:46;;;;;;;16.40;8.57;;;4.60;99.90;;;;;;4994142;28;20031;-77
2024/01/30 09:34:13;;;;;;;14.93;7.57;;;4.60;99.90;;;;;;4993423;28;20030;-77
2024/01/30 09:36:39;;;;;;;14.93;7.67;;;4.70;99.90;;;;;;4992982;28;20030;-77
2024/01/30 09:39:06;;;;;;;18.30;8.43;;;4.80;99.90;;;;;;5009896;28;20109;-77
2024/01/30 09:41:33;;;;;;;15.20;8.10;;;4.80;99.90;;;;;;5009398;28;20129;-78
2024/01/30 09:44:02;;;;;;;20.60;7.90;;;4.80;99.90;;;;;;4993331;28;20046;-77
2024/01/30 09:46:30;;;;;;;17.87;8.33;;;4.80;99.90;;;;;;4992623;28;20030;-78
2024/01/30 09:48:57;;;;;;;14.33;7.80;;;4.80;99.90;;;;;;4993148;28;20030;-77
2024/01/30 09:51:23;;;;;;;17.80;7.80;;;4.90;99.90;;;;;;4994320;28;20042;-77
2024/01/30 09:53:49;;;;;;;15.43;7.83;;;4.90;99.90;;;;;;4993891;28;20026;-78
2024/01/30 09:56:16;;;;;;;11.93;6.90;;;5.00;99.90;;;;;;5009530;28;20029;-78
2024/01/30 09:58:42;;;;;;;15.50;8.00;;;5.00;99.90;;;;;;4992372;28;20026;-77
2024/01/30 10:01:07;;;;;;;13.37;7.20;;;5.10;99.90;;;;;;5009326;28;20041;-77
2024/01/30 10:03:34;;;;;;;15.63;8.97;;;5.20;99.90;;;;;;5008793;28;20034;-78
2024/01/30 10:06:00;;;;;;;15.07;8.23;;;5.30;99.90;;;;;;5008892;28;20145;-77
2024/01/30 10:08:26;;;;;;;13.70;7.23;;;5.30;99.90;;;;;;4991664;28;20404;-77
2024/01/30 10:10:52;;;;;;;14.00;7.40;;;5.40;99.90;;;;;;4991056;28;20486;-77
2024/01/30 10:13:18;;;;;;;14.97;7.57;;;5.50;99.90;;;;;;4991163;28;20026;-78
2024/01/30 10:15:44;;;;;;;15.30;8.10;;;5.60;99.90;;;;;;4990451;28;20375;-77
2024/01/30 10:18:11;;;;;;;11.63;7.57;;;5.60;99.90;;;;;;4991222;28;20030;-79
2024/01/30 10:20:37;;;;;;;17.73;8.00;;;5.70;99.90;;;;;;4991117;28;20057;-77
2024/01/30 10:23:06;;;;;;;16.47;8.20;;;5.80;99.90;;;;;;4993181;28;20052;-78
2024/01/30 10:25:32;;;;;;;17.17;8.73;;;5.80;99.90;;;;;;4991252;28;20499;-77
2024/01/30 10:27:59;;;;;;;15.47;8.17;;;5.90;99.90;;;;;;4986584;28;20038;-79
2024/01/30 10:30:25;;;;;;;14.93;8.40;;;5.90;99.90;;;;;;4991960;28;20030;-78
2024/01/30 10:32:51;;;;;;;17.13;8.60;;;6.00;99.90;;;;;;4991728;28;20142;-80
2024/01/30 10:35:17;;;;;;;21.00;8.53;;;6.00;99.90;;;;;;4991656;28;20037;-78
2024/01/30 10:37:47;;;;;;;17.07;8.63;;;6.10;99.90;;;;;;4991687;28;20034;-78
2024/01/30 10:40:15;;;;;;;16.63;8.63;;;6.10;99.90;;;;;;4987796;28;20033;-77
2024/01/30 10:42:45;;;;;;;18.07;9.17;;;6.20;99.90;;;;;;4992056;28;20088;-77
2024/01/30 10:45:17;;;;;;;14.90;8.90;;;6.30;99.90;;;;;;4991627;28;20033;-77
2024/01/30 10:47:50;;;;;;;16.73;8.63;;;6.40;99.90;;;;;;4991758;28;20042;-78
2024/01/30 10:50:16;;;;;;;17.83;8.83;;;6.40;99.90;;;;;;4990541;28;20038;-78
2024/01/30 10:52:42;;;;;;;16.43;8.30;;;6.50;99.90;;;;;;4993597;28;20034;-77
2024/01/30 10:55:08;;;;;;;15.57;8.67;;;6.50;99.90;;;;;;4996486;28;20116;-77
2024/01/30 10:57:37;;;;;;;16.20;9.03;;;6.50;99.90;;;;;;4996729;28;20030;-77
2024/01/30 11:00:12;;;;;;;19.63;9.20;;;6.50;99.90;;;;;;4996621;28;20029;-77
2024/01/30 11:02:43;;;;;;;18.07;9.00;;;6.60;99.90;;;;;;4988031;28;20499;-77
2024/01/30 11:05:09;;;;;;;15.60;9.15;;;6.70;99.90;;;;;;4977036;28;20082;-77
2024/01/30 11:07:35;;;;;;;17.40;8.70;;;6.70;99.90;;;;;;4976909;28;20062;-78
2024/01/30 11:10:02;;;;;;;16.97;8.97;;;6.70;99.90;;;;;;4977021;28;20479;-77
2024/01/30 11:12:29;;;;;;;21.47;9.37;;;6.80;99.90;;;;;;4977331;28;20027;-77
2024/01/30 11:15:05;;;;;;;18.63;9.13;;;6.90;99.90;;;;;;4978193;28;20035;-77
2024/01/30 11:17:48;;;;;;;17.42;9.43;;;7.00;99.90;;;;;;4977959;28;20070;-77
2024/01/30 11:20:31;;;;;;;18.00;9.33;;;7.10;99.90;;;;;;4976799;28;20027;-78
2024/01/30 11:22:57;;;;;;;20.40;9.98;;;7.20;99.90;;;;;;4976933;28;20085;-77
2024/01/30 11:25:24;;;;;;;20.02;10.23;;;7.30;99.90;;;;;;4976303;28;20113;-77
2024/01/30 11:27:51;;;;;;;17.60;9.43;;;7.30;99.90;;;;;;4975912;28;20037;-78
2024/01/30 11:30:24;;;;;;;15.17;8.40;;;7.50;99.90;;;;;;4977546;28;20451;-77
2024/01/30 11:33:13;;;;;;;16.00;8.38;;;7.60;99.90;;;;;;4990569;28;20053;-78
2024/01/30 11:35:43;;;;;;;16.42;8.38;;;7.70;99.90;;;;;;4995093;28;20241;-77
2024/01/30 11:38:11;;;;;;;17.60;9.05;;;7.80;99.90;;;;;;4995757;28;20034;-77
2024/01/30 11:40:40;;;;;;;17.13;8.35;;;7.90;99.90;;;;;;4996023;28;20157;-79
2024/01/30 11:43:07;;;;;;;20.23;7.75;;;7.90;99.90;;;;;;4996824;28;20490;-79
2024/01/30 11:45:34;;;;;;;19.33;8.98;;;8.00;99.90;;;;;;4995141;28;20117;-83
2024/01/30 11:48:01;;;;;;;15.32;8.82;;;8.00;99.90;;;;;;4996664;28;20058;-81
2024/01/30 11:50:27;;;;;;;14.38;8.45;;;8.10;99.90;;;;;;4995694;28;20486;-78
2024/01/30 11:52:54;;;;;;;16.20;8.57;;;8.10;99.90;;;;;;4996233;28;20035;-78
2024/01/30 11:55:20;;;;;;;15.23;8.95;;;8.20;99.90;;;;;;4995388;28;20026;-78
2024/01/30 11:57:46;;;;;;;17.92;8.38;;;8.20;99.90;;;;;;4996062;28;20088;-79
2024/01/30 12:00:18;;;;;;;16.25;9.10;;;8.30;99.90;;;;;;4995274;28;20033;-79
2024/01/30 12:02:49;;;;;;;14.88;9.02;;;8.30;99.90;;;;;;4993968;28;20089;-78
2024/01/30 12:05:15;;;;;;;18.13;9.27;;;8.40;99.90;;;;;;4997240;28;20055;-78
2024/01/30 12:07:43;;;;;;;17.58;9.93;;;8.40;99.90;;;;;;4994376;28;20364;-78
2024/01/30 12:10:09;;;;;;;15.20;8.38;;;8.50;99.90;;;;;;4994962;28;20034;-78
2024/01/30 12:12:35;;;;;;;12.88;7.63;;;8.60;99.90;;;;;;4996227;28;20459;-80
2024/01/30 12:15:01;;;;;;;16.02;8.52;;;8.70;99.90;;;;;;4996139;28;20045;-80
2024/01/30 12:17:32;;;;;;;16.83;8.20;;;8.80;99.90;;;;;;4995220;28;20380;-80
2024/01/30 12:20:15;;;;;;;16.50;8.90;;;8.80;99.90;;;;;;4995151;28;20031;-80
2024/01/30 12:22:42;;;;;;;14.18;8.70;;;8.90;99.90;;;;;;4995833;28;20038;-79
2024/01/30 12:25:12;;;;;;;16.10;7.95;;;8.90;99.90;;;;;;4994892;28;20083;-79
2024/01/30 12:27:39;;;;;;;14.80;7.03;;;9.00;99.90;;;;;;4996356;28;20022;-78
2024/01/30 12:30:10;;;;;;;14.50;7.32;;;9.10;99.90;;;;;;4994635;28;20130;-78
2024/01/30 12:32:37;;;;;;;14.68;8.13;;;9.10;99.90;;;;;;4993912;28;20051;-79
2024/01/30 12:35:03;;;;;;;14.20;7.00;;;9.20;99.90;;;;;;4994245;28;20042;-78
2024/01/30 12:37:30;;;;;;;12.02;6.72;;;9.30;99.90;;;;;;4994727;28;20042;-78
2024/01/30 12:39:56;;;;;;;11.88;7.18;;;9.30;99.90;;;;;;4993586;28;20117;-79
2024/01/30 12:42:22;;;;;;;13.27;7.20;;;9.40;99.90;;;;;;4994287;28;20053;-77
2024/01/30 12:44:49;;;;;;;11.82;6.50;;;9.40;99.90;;;;;;4993634;28;20030;-78